createdAt,value
2022-08-12T00:00:21.018Z,1001.34
2022-08-12T00:02:03.632Z,1001.37
2022-08-12T00:02:21.976Z,1001.34
2022-08-12T00:03:21.263Z,1001.37
2022-08-12T00:04:20.975Z,1001.34
2022-08-12T00:05:20.944Z,1001.38
2022-08-12T00:06:20.935Z,1001.37
2022-08-12T00:07:20.925Z,1001.39
2022-08-12T00:08:32.348Z,1001.38
2022-08-12T00:09:26.137Z,1001.40
2022-08-12T00:10:20.933Z,1001.40
2022-08-12T00:11:20.877Z,1001.40
2022-08-12T00:12:20.871Z,1001.41
2022-08-12T00:13:20.849Z,1001.42
2022-08-12T00:14:20.847Z,1001.45
2022-08-12T00:15:20.857Z,1001.42
2022-08-12T00:16:20.818Z,1001.42
2022-08-12T00:17:23.146Z,1001.44
2022-08-12T00:18:20.794Z,1001.43
2022-08-12T00:19:20.781Z,1001.42
2022-08-12T00:20:20.778Z,1001.42
2022-08-12T00:21:20.788Z,1001.48
2022-08-12T00:22:20.748Z,1001.45
2022-08-12T00:23:20.738Z,1001.47
2022-08-12T00:24:20.719Z,1001.44
2022-08-12T00:25:20.715Z,1001.41
2022-08-12T00:26:24.417Z,1001.52
2022-08-12T00:27:20.689Z,1001.46
2022-08-12T00:28:20.697Z,1001.49
2022-08-12T00:29:20.668Z,1001.40
2022-08-12T00:30:20.658Z,1001.48
2022-08-12T00:31:20.645Z,1001.52
2022-08-12T00:32:35.376Z,1001.44
2022-08-12T00:33:22.150Z,1001.49
2022-08-12T00:34:20.609Z,1001.47
2022-08-12T00:35:20.600Z,1001.44
2022-08-12T00:36:36.160Z,1001.48
2022-08-12T00:37:21.599Z,1001.45
2022-08-12T00:38:20.561Z,1001.52
2022-08-12T00:39:20.573Z,1001.50
2022-08-12T00:40:20.542Z,1001.48
2022-08-12T00:41:20.528Z,1001.51
2022-08-12T00:42:20.519Z,1001.53
2022-08-12T00:43:20.536Z,1001.49
2022-08-12T00:44:20.500Z,1001.55
2022-08-12T00:45:20.485Z,1001.53
2022-08-12T00:46:20.480Z,1001.55
2022-08-12T00:47:24.964Z,1001.59
2022-08-12T00:48:21.470Z,1001.57
2022-08-12T00:49:20.433Z,1001.57
2022-08-12T00:50:20.427Z,1001.62
2022-08-12T00:51:20.419Z,1001.60
2022-08-12T00:52:20.400Z,1001.57
2022-08-12T00:53:20.389Z,1001.59
2022-08-12T00:54:20.410Z,1001.57
2022-08-12T00:55:20.394Z,1001.58
2022-08-12T00:56:20.360Z,1001.62
2022-08-12T00:57:20.347Z,1001.58
2022-08-12T00:58:20.341Z,1001.61
2022-08-12T00:59:20.345Z,1001.61
2022-08-12T01:00:20.313Z,1001.67
2022-08-12T01:01:20.347Z,1001.57
2022-08-12T01:02:20.333Z,1001.65
2022-08-12T01:03:20.272Z,1001.62
2022-08-12T01:04:20.261Z,1001.66
2022-08-12T01:05:20.315Z,1001.67
2022-08-12T01:06:20.242Z,1001.68
2022-08-12T01:07:20.232Z,1001.67
2022-08-12T01:08:20.221Z,1001.71
2022-08-12T01:09:20.203Z,1001.72
2022-08-12T01:10:20.200Z,1001.67
2022-08-12T01:11:21.201Z,1001.70
2022-08-12T01:12:20.171Z,1001.74
2022-08-12T01:13:20.522Z,1001.69
2022-08-12T01:14:20.153Z,1001.63
2022-08-12T01:15:20.132Z,1001.70
2022-08-12T01:16:20.122Z,1001.72
2022-08-12T01:17:20.140Z,1001.70
2022-08-12T01:18:20.110Z,1001.76
2022-08-12T01:19:22.138Z,1001.73
2022-08-12T01:20:20.083Z,1001.71
2022-08-12T01:21:20.074Z,1001.75
2022-08-12T01:22:20.063Z,1001.74
2022-08-12T01:23:20.063Z,1001.75
2022-08-12T01:24:28.149Z,1001.76
2022-08-12T01:25:21.023Z,1001.70
2022-08-12T01:26:20.014Z,1001.76
2022-08-12T01:27:19.995Z,1001.71
2022-08-12T01:28:20.037Z,1001.74
2022-08-12T01:29:19.963Z,1001.75
2022-08-12T01:30:19.971Z,1001.66
2022-08-12T01:31:19.957Z,1001.72
2022-08-12T01:32:19.942Z,1001.68
2022-08-12T01:33:19.935Z,1001.68
2022-08-12T01:34:36.568Z,1001.70
2022-08-12T01:35:20.910Z,1001.72
2022-08-12T01:36:19.894Z,1001.67
2022-08-12T01:37:19.887Z,1001.65
2022-08-12T01:38:19.874Z,1001.67
2022-08-12T01:39:20.928Z,1001.65
2022-08-12T01:40:36.098Z,1001.70
2022-08-12T01:41:20.833Z,1001.68
2022-08-12T01:42:19.825Z,1001.69
2022-08-12T01:43:19.816Z,1001.74
2022-08-12T01:44:20.556Z,1001.68
2022-08-12T01:45:19.813Z,1001.67
2022-08-12T01:46:19.777Z,1001.73
2022-08-12T01:47:19.765Z,1001.62
2022-08-12T01:48:19.755Z,1001.71
2022-08-12T01:49:21.624Z,1001.71
2022-08-12T01:50:19.734Z,1001.63
2022-08-12T01:52:04.451Z,1001.64
2022-08-12T01:52:22.725Z,1001.58
2022-08-12T01:53:19.694Z,1001.66
2022-08-12T01:54:19.686Z,1001.58
2022-08-12T01:55:19.673Z,1001.60
2022-08-12T01:56:19.697Z,1001.61
2022-08-12T01:57:57.620Z,1001.61
2022-08-12T01:58:20.647Z,1001.55
2022-08-12T01:59:19.625Z,1001.58
2022-08-12T02:00:19.664Z,1001.59
2022-08-12T02:01:19.630Z,1001.55
2022-08-12T02:02:19.609Z,1001.52
2022-08-12T02:03:19.585Z,1001.56
2022-08-12T02:04:19.566Z,1001.54
2022-08-12T02:05:19.569Z,1001.51
2022-08-12T02:06:19.549Z,1001.55
2022-08-12T02:07:19.555Z,1001.55
2022-08-12T02:08:19.516Z,1001.59
2022-08-12T02:09:19.514Z,1001.50
2022-08-12T02:10:49.283Z,1001.56
2022-08-12T02:11:20.496Z,1001.50
2022-08-12T02:12:24.644Z,1001.60
2022-08-12T02:13:41.882Z,1001.54
2022-08-12T02:14:20.456Z,1001.59
2022-08-12T02:15:19.446Z,1001.61
2022-08-12T02:16:19.428Z,1001.56
2022-08-12T02:17:19.422Z,1001.58
2022-08-12T02:18:20.407Z,1001.55
2022-08-12T02:19:22.215Z,1001.52
2022-08-12T02:20:19.396Z,1001.56
2022-08-12T02:21:19.379Z,1001.56
2022-08-12T02:22:19.358Z,1001.53
2022-08-12T02:23:19.362Z,1001.54
2022-08-12T02:24:19.338Z,1001.54
2022-08-12T02:25:19.359Z,1001.50
2022-08-12T02:26:19.308Z,1001.50
2022-08-12T02:27:19.311Z,1001.52
2022-08-12T02:28:19.300Z,1001.44
2022-08-12T02:29:19.287Z,1001.48
2022-08-12T02:30:19.288Z,1001.45
2022-08-12T02:31:19.267Z,1001.43
2022-08-12T02:32:19.248Z,1001.44
2022-08-12T02:33:19.238Z,1001.45
2022-08-12T02:34:19.228Z,1001.44
2022-08-12T02:35:19.217Z,1001.48
2022-08-12T02:36:19.219Z,1001.53
2022-08-12T02:37:19.191Z,1001.46
2022-08-12T02:38:19.180Z,1001.47
2022-08-12T02:39:19.251Z,1001.44
2022-08-12T02:40:19.159Z,1001.44
2022-08-12T02:41:19.178Z,1001.52
2022-08-12T02:42:19.139Z,1001.44
2022-08-12T02:43:19.129Z,1001.36
2022-08-12T02:44:19.119Z,1001.45
2022-08-12T02:45:19.100Z,1001.45
2022-08-12T02:46:19.090Z,1001.45
2022-08-12T02:47:59.131Z,1001.45
2022-08-12T02:48:20.069Z,1001.45
2022-08-12T02:49:19.058Z,1001.43
2022-08-12T02:50:19.040Z,1001.46
2022-08-12T02:51:19.040Z,1001.45
2022-08-12T02:52:19.054Z,1001.49
2022-08-12T02:53:19.015Z,1001.45
2022-08-12T02:54:19.002Z,1001.47
2022-08-12T02:55:28.167Z,1001.49
2022-08-12T02:56:19.970Z,1001.48
2022-08-12T02:57:18.972Z,1001.46
2022-08-12T02:58:19.808Z,1001.43
2022-08-12T02:59:18.945Z,1001.38
2022-08-12T03:00:18.939Z,1001.45
2022-08-12T03:01:19.001Z,1001.40
2022-08-12T03:02:18.907Z,1001.43
2022-08-12T03:03:18.919Z,1001.45
2022-08-12T03:04:20.601Z,1001.42
2022-08-12T03:05:18.884Z,1001.44
2022-08-12T03:06:18.857Z,1001.47
2022-08-12T03:07:18.852Z,1001.47
2022-08-12T03:08:29.877Z,1001.46
2022-08-12T03:09:19.854Z,1001.41
2022-08-12T03:10:36.490Z,1001.42
2022-08-12T03:11:19.812Z,1001.44
2022-08-12T03:12:20.120Z,1001.39
2022-08-12T03:13:18.791Z,1001.41
2022-08-12T03:14:18.775Z,1001.39
2022-08-12T03:15:18.785Z,1001.40
2022-08-12T03:16:18.754Z,1001.38
2022-08-12T03:17:18.741Z,1001.39
2022-08-12T03:18:25.375Z,1001.38
2022-08-12T03:19:19.721Z,1001.44
2022-08-12T03:20:18.721Z,1001.47
2022-08-12T03:21:53.200Z,1001.45
2022-08-12T03:22:19.682Z,1001.49
2022-08-12T03:23:29.270Z,1001.46
2022-08-12T03:24:19.662Z,1001.53
2022-08-12T03:25:18.651Z,1001.48
2022-08-12T03:26:18.673Z,1001.46
2022-08-12T03:27:18.652Z,1001.48
2022-08-12T03:28:23.521Z,1001.53
2022-08-12T03:29:19.593Z,1001.52
2022-08-12T03:30:18.585Z,1001.56
2022-08-12T03:31:18.583Z,1001.49
2022-08-12T03:32:35.744Z,1001.52
2022-08-12T03:33:19.592Z,1001.57
2022-08-12T03:34:18.541Z,1001.50
2022-08-12T03:35:20.514Z,1001.55
2022-08-12T03:36:19.525Z,1001.51
2022-08-12T03:37:18.513Z,1001.53
2022-08-12T03:38:18.541Z,1001.56
2022-08-12T03:39:18.849Z,1001.49
2022-08-12T03:40:18.472Z,1001.54
2022-08-12T03:41:18.463Z,1001.51
2022-08-12T03:42:18.463Z,1001.53
2022-08-12T03:43:18.453Z,1001.58
2022-08-12T03:44:18.464Z,1001.60
2022-08-12T03:45:18.420Z,1001.61
2022-08-12T03:46:18.403Z,1001.58
2022-08-12T03:47:18.403Z,1001.56
2022-08-12T03:48:18.644Z,1001.63
2022-08-12T03:49:18.376Z,1001.64
2022-08-12T03:50:18.405Z,1001.64
2022-08-12T03:51:18.352Z,1001.61
2022-08-12T03:52:18.343Z,1001.65
2022-08-12T03:53:18.331Z,1001.61
2022-08-12T03:54:18.313Z,1001.62
2022-08-12T03:55:18.303Z,1001.65
2022-08-12T03:56:18.325Z,1001.68
2022-08-12T03:57:18.281Z,1001.69
2022-08-12T03:58:18.278Z,1001.66
2022-08-12T03:59:18.264Z,1001.66
2022-08-12T04:00:24.100Z,1001.66
2022-08-12T04:01:19.341Z,1001.72
2022-08-12T04:02:18.224Z,1001.69
2022-08-12T04:03:18.213Z,1001.68
2022-08-12T04:04:18.204Z,1001.73
2022-08-12T04:05:21.446Z,1001.71
2022-08-12T04:06:18.177Z,1001.69
2022-08-12T04:08:28.081Z,1001.64
2022-08-12T04:09:28.051Z,1001.68
2022-08-12T04:10:28.072Z,1001.63
2022-08-12T04:11:32.045Z,1001.67
2022-08-12T04:12:32.310Z,1001.62
2022-08-12T04:13:29.035Z,1001.64
2022-08-12T04:14:28.021Z,1001.65
2022-08-12T04:15:27.985Z,1001.66
2022-08-12T04:16:28.723Z,1001.69
2022-08-12T04:17:27.990Z,1001.69
2022-08-12T04:18:27.962Z,1001.66
2022-08-12T04:19:27.961Z,1001.66
2022-08-12T04:20:27.932Z,1001.70
2022-08-12T04:21:27.925Z,1001.75
2022-08-12T04:22:27.911Z,1001.73
2022-08-12T04:23:27.902Z,1001.74
2022-08-12T04:24:27.912Z,1001.76
2022-08-12T04:25:27.881Z,1001.78
2022-08-12T04:26:27.895Z,1001.76
2022-08-12T04:27:27.853Z,1001.76
2022-08-12T04:28:27.922Z,1001.75
2022-08-12T04:30:30.688Z,1001.78
2022-08-12T04:30:33.357Z,1001.78
2022-08-12T04:31:28.823Z,1001.77
2022-08-12T04:32:27.807Z,1001.81
2022-08-12T04:33:27.791Z,1001.76
2022-08-12T04:34:27.825Z,1001.78
2022-08-12T04:35:27.813Z,1001.80
2022-08-12T04:36:27.763Z,1001.82
2022-08-12T04:37:27.753Z,1001.78
2022-08-12T04:38:27.732Z,1001.82
2022-08-12T04:39:27.755Z,1001.81
2022-08-12T04:40:28.224Z,1001.80
2022-08-12T04:41:27.748Z,1001.81
2022-08-12T04:42:27.693Z,1001.82
2022-08-12T04:43:59.605Z,1001.78
2022-08-12T04:44:28.671Z,1001.85
2022-08-12T04:45:27.654Z,1001.80
2022-08-12T04:46:30.810Z,1001.79
2022-08-12T04:47:28.654Z,1001.80
2022-08-12T04:48:27.622Z,1001.83
2022-08-12T04:49:27.617Z,1001.80
2022-08-12T04:50:36.020Z,1001.81
2022-08-12T04:51:28.596Z,1001.82
2022-08-12T04:52:31.805Z,1001.79
2022-08-12T04:53:28.614Z,1001.81
2022-08-12T04:54:27.561Z,1001.82
2022-08-12T04:55:27.544Z,1001.82
2022-08-12T04:56:27.536Z,1001.85
2022-08-12T04:57:28.525Z,1001.85
2022-08-12T04:58:29.588Z,1001.85
2022-08-12T04:59:27.525Z,1001.79
2022-08-12T05:00:27.488Z,1001.79
2022-08-12T05:01:27.524Z,1001.82
2022-08-12T05:02:27.558Z,1001.83
2022-08-12T05:03:27.463Z,1001.88
2022-08-12T05:04:27.444Z,1001.95
2022-08-12T05:05:27.876Z,1001.93
2022-08-12T05:06:27.427Z,1001.89
2022-08-12T05:07:27.415Z,1001.90
2022-08-12T05:08:27.395Z,1001.86
2022-08-12T05:09:27.388Z,1001.89
2022-08-12T05:10:33.397Z,1001.99
2022-08-12T05:11:28.365Z,1001.83
2022-08-12T05:12:27.364Z,1001.89
2022-08-12T05:13:27.349Z,1001.85
2022-08-12T05:14:27.326Z,1001.87
2022-08-12T05:15:29.263Z,1001.85
2022-08-12T05:16:32.359Z,1001.87
2022-08-12T05:17:28.514Z,1001.85
2022-08-12T05:18:29.424Z,1001.88
2022-08-12T05:19:27.322Z,1001.86
2022-08-12T05:20:27.265Z,1001.84
2022-08-12T05:21:27.275Z,1001.87
2022-08-12T05:22:27.246Z,1001.88
2022-08-12T05:23:27.238Z,1001.92
2022-08-12T05:24:27.218Z,1001.87
2022-08-12T05:25:27.216Z,1001.92
2022-08-12T05:26:27.276Z,1001.93
2022-08-12T05:27:27.207Z,1001.81
2022-08-12T05:28:27.533Z,1001.89
2022-08-12T05:30:07.677Z,1001.84
2022-08-12T05:30:28.147Z,1001.84
2022-08-12T05:31:40.387Z,1001.88
2022-08-12T05:32:28.147Z,1001.88
2022-08-12T05:33:27.117Z,1001.92
2022-08-12T05:34:27.106Z,1001.89
2022-08-12T05:35:27.106Z,1001.86
2022-08-12T05:36:27.091Z,1001.81
2022-08-12T05:37:27.077Z,1001.84
2022-08-12T05:38:27.079Z,1001.84
2022-08-12T05:39:27.100Z,1001.85
2022-08-12T05:40:27.037Z,1001.94
2022-08-12T05:41:27.030Z,1001.95
2022-08-12T05:42:34.428Z,1001.92
2022-08-12T05:43:28.071Z,1001.96
2022-08-12T05:44:26.990Z,1001.96
2022-08-12T05:45:26.986Z,1001.98
2022-08-12T05:46:26.968Z,1001.97
2022-08-12T05:47:38.501Z,1002.00
2022-08-12T05:48:27.958Z,1001.99
2022-08-12T05:49:27.009Z,1001.98
2022-08-12T05:50:26.927Z,1002.02
2022-08-12T05:51:39.494Z,1002.00
2022-08-12T05:52:28.117Z,1001.96
2022-08-12T05:53:26.889Z,1001.97
2022-08-12T05:54:41.178Z,1002.02
2022-08-12T05:55:31.204Z,1002.06
2022-08-12T05:56:26.857Z,1002.06
2022-08-12T05:57:26.848Z,1002.08
2022-08-12T05:58:26.829Z,1002.11
2022-08-12T05:59:26.832Z,1002.07
2022-08-12T06:00:26.812Z,1002.11
2022-08-12T06:02:10.841Z,1002.03
2022-08-12T06:02:27.809Z,1002.05
2022-08-12T06:03:26.787Z,1002.08
2022-08-12T06:04:26.769Z,1002.10
2022-08-12T06:05:26.760Z,1002.13
2022-08-12T06:06:27.836Z,1002.08
2022-08-12T06:07:48.732Z,1002.11
2022-08-12T06:08:27.720Z,1002.05
2022-08-12T06:09:26.711Z,1002.14
2022-08-12T06:10:32.519Z,1002.17
2022-08-12T06:11:27.691Z,1002.10
2022-08-12T06:12:26.700Z,1002.14
2022-08-12T06:13:52.843Z,1002.19
2022-08-12T06:14:27.681Z,1002.26
2022-08-12T06:15:26.687Z,1002.24
2022-08-12T06:16:26.632Z,1002.21
2022-08-12T06:17:26.622Z,1002.27
2022-08-12T06:18:29.303Z,1002.27
2022-08-12T06:20:28.138Z,1002.21
2022-08-12T06:20:30.141Z,1002.24
2022-08-12T06:21:27.582Z,1002.22
2022-08-12T06:22:26.563Z,1002.21
2022-08-12T06:23:26.581Z,1002.25
2022-08-12T06:24:26.563Z,1002.21
2022-08-12T06:25:26.544Z,1002.21
2022-08-12T06:26:26.524Z,1002.19
2022-08-12T06:27:26.514Z,1002.25
2022-08-12T06:28:26.503Z,1002.25
2022-08-12T06:30:06.903Z,1002.34
2022-08-12T06:30:36.763Z,1002.26
2022-08-12T06:31:27.539Z,1002.28
2022-08-12T06:32:27.552Z,1002.32
2022-08-12T06:34:00.382Z,1002.31
2022-08-12T06:35:25.147Z,1002.33
2022-08-12T06:35:49.222Z,1002.32
2022-08-12T06:36:29.998Z,1002.33
2022-08-12T06:37:27.406Z,1002.35
2022-08-12T06:38:26.408Z,1002.39
2022-08-12T06:39:26.461Z,1002.36
2022-08-12T06:40:26.428Z,1002.36
2022-08-12T06:41:26.366Z,1002.37
2022-08-12T06:42:33.074Z,1002.35
2022-08-12T06:43:27.339Z,1002.36
2022-08-12T06:44:26.336Z,1002.38
2022-08-12T06:45:26.320Z,1002.37
2022-08-12T06:46:27.329Z,1002.27
2022-08-12T06:47:26.300Z,1002.34
2022-08-12T06:48:26.282Z,1002.38
2022-08-12T06:49:26.281Z,1002.33
2022-08-12T06:50:26.267Z,1002.35
2022-08-12T06:51:26.251Z,1002.39
2022-08-12T06:52:26.259Z,1002.42
2022-08-12T06:53:26.240Z,1002.42
2022-08-12T06:54:31.162Z,1002.38
2022-08-12T06:55:27.213Z,1002.46
2022-08-12T06:56:45.986Z,1002.46
2022-08-12T06:58:01.995Z,1002.40
2022-08-12T06:58:27.183Z,1002.40
2022-08-12T06:59:26.173Z,1002.46
2022-08-12T07:00:30.689Z,1002.43
2022-08-12T07:01:27.198Z,1002.39
2022-08-12T07:02:26.136Z,1002.45
2022-08-12T07:03:26.160Z,1002.43
2022-08-12T07:04:37.222Z,1002.42
2022-08-12T07:05:27.115Z,1002.44
2022-08-12T07:06:26.096Z,1002.42
2022-08-12T07:07:26.086Z,1002.44
2022-08-12T07:08:26.078Z,1002.44
2022-08-12T07:10:05.198Z,1002.39
2022-08-12T07:10:27.396Z,1002.43
2022-08-12T07:11:26.047Z,1002.46
2022-08-12T07:12:27.647Z,1002.48
2022-08-12T07:13:26.027Z,1002.37
2022-08-12T07:14:26.060Z,1002.41
2022-08-12T07:15:26.008Z,1002.44
2022-08-12T07:16:26.786Z,1002.39
2022-08-12T07:17:25.993Z,1002.33
2022-08-12T07:18:25.978Z,1002.45
2022-08-12T07:19:25.970Z,1002.44
2022-08-12T07:20:51.116Z,1002.41
2022-08-12T07:21:59.019Z,1002.48
2022-08-12T07:22:26.931Z,1002.46
2022-08-12T07:23:25.921Z,1002.48
2022-08-12T07:24:25.920Z,1002.51
2022-08-12T07:25:25.901Z,1002.51
2022-08-12T07:26:25.911Z,1002.46
2022-08-12T07:27:25.885Z,1002.46
2022-08-12T07:28:25.863Z,1002.52
2022-08-12T07:29:25.864Z,1002.50
2022-08-12T07:30:26.844Z,1002.54
2022-08-12T07:31:25.844Z,1002.54
2022-08-12T07:32:30.252Z,1002.51
2022-08-12T07:33:25.844Z,1002.57
2022-08-12T07:34:25.854Z,1002.54
2022-08-12T07:35:25.806Z,1002.59
2022-08-12T07:36:25.795Z,1002.59
2022-08-12T07:37:25.805Z,1002.49
2022-08-12T07:38:29.425Z,1002.57
2022-08-12T07:39:25.793Z,1002.56
2022-08-12T07:40:25.746Z,1002.54
2022-08-12T07:41:25.746Z,1002.57
2022-08-12T07:42:26.550Z,1002.58
2022-08-12T07:43:25.736Z,1002.60
2022-08-12T07:44:25.715Z,1002.61
2022-08-12T07:45:25.706Z,1002.57
2022-08-12T07:46:25.688Z,1002.57
2022-08-12T07:47:25.678Z,1002.55
2022-08-12T07:48:25.690Z,1002.61
2022-08-12T07:49:25.659Z,1002.60
2022-08-12T07:50:25.668Z,1002.61
2022-08-12T07:51:25.891Z,1002.63
2022-08-12T07:52:25.627Z,1002.55
2022-08-12T07:53:25.621Z,1002.59
2022-08-12T07:54:25.624Z,1002.57
2022-08-12T07:55:25.601Z,1002.60
2022-08-12T07:56:25.581Z,1002.61
2022-08-12T07:57:25.597Z,1002.61
2022-08-12T07:58:25.618Z,1002.63
2022-08-12T07:59:25.611Z,1002.59
2022-08-12T08:00:25.561Z,1002.59
2022-08-12T08:01:25.602Z,1002.54
2022-08-12T08:02:26.935Z,1002.54
2022-08-12T08:03:25.608Z,1002.51
2022-08-12T08:04:25.510Z,1002.47
2022-08-12T08:05:25.526Z,1002.43
2022-08-12T08:06:25.484Z,1002.42
2022-08-12T08:07:25.476Z,1002.49
2022-08-12T08:08:25.465Z,1002.45
2022-08-12T08:09:25.464Z,1002.40
2022-08-12T08:10:25.445Z,1002.45
2022-08-12T08:11:25.455Z,1002.43
2022-08-12T08:12:25.424Z,1002.47
2022-08-12T08:13:25.417Z,1002.41
2022-08-12T08:14:25.408Z,1002.45
2022-08-12T08:15:44.491Z,1002.45
2022-08-12T08:16:26.427Z,1002.46
2022-08-12T08:17:25.375Z,1002.50
2022-08-12T08:18:26.742Z,1002.45
2022-08-12T08:19:25.358Z,1002.50
2022-08-12T08:20:25.347Z,1002.47
2022-08-12T08:21:25.338Z,1002.45
2022-08-12T08:22:25.774Z,1002.44
2022-08-12T08:23:29.342Z,1002.50
2022-08-12T08:24:26.298Z,1002.51
2022-08-12T08:25:36.986Z,1002.42
2022-08-12T08:26:26.279Z,1002.33
2022-08-12T08:27:25.298Z,1002.40
2022-08-12T08:28:25.253Z,1002.43
2022-08-12T08:29:25.250Z,1002.37
2022-08-12T08:30:25.242Z,1002.37
2022-08-12T08:31:25.233Z,1002.41
2022-08-12T08:32:25.221Z,1002.34
2022-08-12T08:34:04.235Z,1002.32
2022-08-12T08:34:33.536Z,1002.29
2022-08-12T08:35:32.850Z,1002.28
2022-08-12T08:36:26.182Z,1002.36
2022-08-12T08:37:27.724Z,1002.30
2022-08-12T08:38:32.909Z,1002.31
2022-08-12T08:39:26.200Z,1002.32
2022-08-12T08:40:25.177Z,1002.22
2022-08-12T08:42:17.638Z,1002.28
2022-08-12T08:42:26.154Z,1002.24
2022-08-12T08:43:25.139Z,1002.28
2022-08-12T08:44:26.124Z,1002.27
2022-08-12T08:45:25.104Z,1002.23
2022-08-12T08:46:25.094Z,1002.22
2022-08-12T08:47:25.075Z,1002.19
2022-08-12T08:48:25.066Z,1002.14
2022-08-12T08:49:25.094Z,1002.14
2022-08-12T08:50:25.046Z,1002.23
2022-08-12T08:51:25.053Z,1002.23
2022-08-12T08:52:39.637Z,1002.20
2022-08-12T08:53:26.037Z,1002.09
2022-08-12T08:54:25.017Z,1002.11
2022-08-12T08:55:33.529Z,1002.10
2022-08-12T08:56:25.987Z,1002.09
2022-08-12T08:57:24.978Z,1002.10
2022-08-12T08:58:25.968Z,1002.12
2022-08-12T08:59:24.958Z,1002.16
2022-08-12T09:00:24.969Z,1002.03
2022-08-12T09:01:25.039Z,1002.03
2022-08-12T09:02:24.929Z,1001.99
2022-08-12T09:04:21.274Z,1001.98
2022-08-12T09:05:11.191Z,1001.97
2022-08-12T09:05:26.122Z,1002.08
2022-08-12T09:06:37.355Z,1002.03
2022-08-12T09:07:51.843Z,1002.08
2022-08-12T09:08:26.765Z,1002.09
2022-08-12T09:09:24.860Z,1002.05
2022-08-12T09:10:31.257Z,1002.07
2022-08-12T09:12:11.219Z,1002.05
2022-08-12T09:12:27.456Z,1002.00
2022-08-12T09:13:29.430Z,1002.02
2022-08-12T09:14:29.386Z,1002.09
2022-08-12T09:15:35.674Z,1002.02
2022-08-12T09:16:25.814Z,1002.01
2022-08-12T09:17:24.786Z,1002.00
2022-08-12T09:20:27.446Z,1001.96
2022-08-12T09:21:24.973Z,1001.93
2022-08-12T09:25:26.358Z,1002.03
2022-08-12T09:26:28.937Z,1002.09
2022-08-12T09:27:57.691Z,1002.02
2022-08-12T09:28:31.102Z,1001.98
2022-08-12T09:30:09.704Z,1002.03
2022-08-12T09:30:42.209Z,1002.04
2022-08-12T09:32:03.473Z,1002.01
2022-08-12T09:32:31.403Z,1002.01
2022-08-12T09:34:28.257Z,1002.06
2022-08-12T09:34:34.195Z,1001.97
2022-08-12T09:35:28.187Z,1001.99
2022-08-12T09:36:31.252Z,1001.96
2022-08-12T09:37:25.612Z,1002.00
2022-08-12T09:38:27.879Z,1001.99
2022-08-12T09:40:05.114Z,1002.02
2022-08-12T09:41:01.567Z,1002.08
2022-08-12T09:42:09.933Z,1002.06
2022-08-12T09:42:38.693Z,1002.03
2022-08-12T09:43:26.058Z,1002.06
2022-08-12T09:44:39.003Z,1001.99
2022-08-12T09:46:07.122Z,1001.92
2022-08-12T09:46:26.376Z,1001.97
2022-08-12T09:47:29.397Z,1001.92
2022-08-12T09:48:25.484Z,1001.67
2022-08-12T09:49:24.495Z,1001.54
2022-08-12T09:50:24.492Z,1001.47
2022-08-12T09:51:24.449Z,1001.38
2022-08-12T09:52:25.445Z,1001.39
2022-08-12T09:53:36.229Z,1001.34
2022-08-12T09:54:33.183Z,1001.26
2022-08-12T09:56:05.523Z,1001.17
2022-08-12T09:56:58.500Z,1001.16
2022-08-12T09:58:44.565Z,1001.21
2022-08-12T09:58:57.646Z,1001.26
2022-08-12T10:00:17.147Z,1001.18
2022-08-12T10:00:29.014Z,1001.16
2022-08-12T10:01:34.526Z,1001.15
2022-08-12T10:02:43.899Z,1001.09
2022-08-12T10:03:31.816Z,1001.11
2022-08-12T10:04:25.365Z,1001.16
2022-08-12T10:06:26.564Z,1001.12
2022-08-12T10:06:31.832Z,1001.07
2022-08-12T10:08:34.173Z,1001.06
2022-08-12T10:09:57.093Z,1001.01
2022-08-12T10:10:38.926Z,1001.03
2022-08-12T10:12:10.728Z,1001.06
2022-08-12T10:12:35.137Z,1001.05
2022-08-12T10:13:39.016Z,1001.00
2022-08-12T10:14:36.489Z,1001.04
2022-08-12T10:16:02.618Z,1001.01
2022-08-12T10:16:39.352Z,1001.01
2022-08-12T10:17:34.095Z,1000.99
2022-08-12T10:18:35.364Z,1001.10
2022-08-12T10:19:36.335Z,1001.04
2022-08-12T10:20:34.132Z,1000.96
2022-08-12T10:21:35.719Z,1000.89
2022-08-12T10:22:49.190Z,1000.90
2022-08-12T10:23:40.068Z,1000.88
2022-08-12T10:24:35.005Z,1000.83
2022-08-12T10:26:10.037Z,1000.90
2022-08-12T10:26:39.048Z,1000.91
2022-08-12T10:28:03.518Z,1000.88
2022-08-12T10:28:35.010Z,1000.94
2022-08-12T10:30:03.513Z,1000.88
2022-08-12T10:30:39.804Z,1000.95
2022-08-12T10:32:19.570Z,1000.89
2022-08-12T10:32:43.974Z,1000.90
2022-08-12T10:33:47.623Z,1000.94
2022-08-12T10:34:34.936Z,1000.84
2022-08-12T10:35:37.917Z,1000.86
2022-08-12T10:36:40.138Z,1000.79
2022-08-12T10:38:34.420Z,1000.73
2022-08-12T10:38:41.579Z,1000.79
2022-08-12T10:40:00.244Z,1000.73
2022-08-12T10:40:37.553Z,1000.73
2022-08-12T10:41:57.299Z,1000.76
2022-08-12T10:42:34.803Z,1000.81
2022-08-12T10:43:54.283Z,1000.83
2022-08-12T10:44:34.780Z,1000.74
2022-08-12T10:45:38.133Z,1000.73
2022-08-12T10:46:33.782Z,1000.68
2022-08-12T10:48:15.871Z,1000.68
2022-08-12T10:48:34.921Z,1000.67
2022-08-12T10:50:03.314Z,1000.67
2022-08-12T10:51:00.417Z,1000.68
2022-08-12T10:52:02.797Z,1000.71
2022-08-12T10:52:47.563Z,1000.64
2022-08-12T10:53:45.776Z,1000.66
2022-08-12T10:54:34.675Z,1000.60
2022-08-12T10:55:33.667Z,1000.64
2022-08-12T10:56:34.850Z,1000.58
2022-08-12T10:58:13.302Z,1000.59
2022-08-12T10:58:34.626Z,1000.58
2022-08-12T11:00:01.396Z,1000.53
2022-08-12T11:00:45.340Z,1000.49
2022-08-12T11:04:19.665Z,1000.48
2022-08-12T11:04:22.960Z,1000.48
2022-08-12T11:04:27.372Z,1000.45
2022-08-12T11:04:45.410Z,1000.43
2022-08-12T11:07:05.356Z,1000.57
2022-08-12T11:07:05.910Z,1000.48
2022-08-12T11:08:34.764Z,1000.38
2022-08-12T11:08:41.999Z,1000.50
2022-08-12T11:09:55.757Z,1000.45
2022-08-12T11:10:34.772Z,1000.41
2022-08-12T11:12:34.838Z,1000.39
2022-08-12T11:12:56.972Z,1000.40
2022-08-12T11:13:45.869Z,1000.49
2022-08-12T11:14:49.357Z,1000.51
2022-08-12T11:16:03.594Z,1000.51
2022-08-12T11:16:34.429Z,1000.48
2022-08-12T11:17:43.770Z,1000.40
2022-08-12T11:18:34.432Z,1000.39
2022-08-12T11:19:33.402Z,1000.29
2022-08-12T11:20:33.389Z,1000.28
2022-08-12T11:21:57.423Z,1000.32
2022-08-12T11:22:34.397Z,1000.30
2022-08-12T11:23:36.607Z,1000.20
2022-08-12T11:24:33.592Z,1000.26
2022-08-12T11:25:56.101Z,1000.23
2022-08-12T11:26:34.338Z,1000.21
2022-08-12T11:27:33.318Z,1000.21
2022-08-12T11:28:37.236Z,1000.15
2022-08-12T11:30:02.101Z,1000.16
2022-08-12T11:30:34.277Z,1000.24
2022-08-12T11:31:56.276Z,1000.24
2022-08-12T11:32:39.007Z,1000.26
2022-08-12T11:34:06.465Z,1000.24
2022-08-12T11:34:51.769Z,1000.23
2022-08-12T11:35:34.213Z,1000.19
2022-08-12T11:36:33.176Z,1000.22
2022-08-12T11:37:48.383Z,1000.24
2022-08-12T11:38:34.154Z,1000.14
2022-08-12T11:40:34.157Z,1000.16
2022-08-12T11:41:33.126Z,1000.26
2022-08-12T11:42:33.116Z,1000.22
2022-08-12T11:43:33.098Z,1000.17
2022-08-12T11:44:36.765Z,1000.11
2022-08-12T11:45:39.050Z,1000.15
2022-08-12T11:46:34.088Z,1000.16
2022-08-12T11:47:33.068Z,1000.11
2022-08-12T11:48:51.297Z,1000.03
2022-08-12T11:49:34.041Z,999.99
2022-08-12T11:50:33.064Z,999.97
2022-08-12T11:51:36.571Z,999.97
2022-08-12T11:52:55.864Z,999.98
2022-08-12T11:53:57.747Z,999.99
2022-08-12T11:54:33.983Z,999.98
2022-08-12T11:55:32.975Z,1000.01
2022-08-12T11:56:38.453Z,1000.01
2022-08-12T11:58:07.195Z,999.97
2022-08-12T12:01:02.739Z,999.94
2022-08-12T12:02:02.015Z,999.98
2022-08-12T12:02:33.975Z,999.93
2022-08-12T12:03:45.876Z,999.94
2022-08-12T12:04:34.259Z,999.90
2022-08-12T12:05:41.557Z,999.86
2022-08-12T12:06:33.852Z,999.82
2022-08-12T12:08:36.314Z,999.78
2022-08-12T12:08:37.092Z,999.78
2022-08-12T12:09:52.026Z,999.71
2022-08-12T12:10:33.835Z,999.75
2022-08-12T12:11:48.871Z,999.78
2022-08-12T12:12:33.818Z,999.75
2022-08-12T12:14:08.843Z,999.76
2022-08-12T12:14:38.032Z,999.82
2022-08-12T12:15:40.775Z,999.69
2022-08-12T12:16:38.222Z,999.62